sensor_id;sensor_type;location;lat;lon;timestamp;P1;durP1;ratioP1;P2;durP2;ratioP2
3359;SDS011;1693;49.602;11.046;2024-01-10T00:00:59;6.03;;;4.13;;
3359;SDS011;1693;49.602;11.046;2024-01-10T00:03:28;5.53;;;3.80;;
3359;SDS011;1693;49.602;11.046;2024-01-10T00:05:55;8.27;;;5.10;;
3359;SDS011;1693;49.602;11.046;2024-01-10T00:08:22;3.90;;;3.30;;
3359;SDS011;1693;49.602;11.046;2024-01-10T00:10:51;5.57;;;3.50;;
3359;SDS011;1693;49.602;11.046;2024-01-10T00:13:19;5.10;;;3.13;;
3359;SDS011;1693;49.602;11.046;2024-01-10T00:15:47;7.90;;;4.43;;
3359;SDS011;1693;49.602;11.046;2024-01-10T00:18:14;6.90;;;3.07;;
3359;SDS011;1693;49.602;11.046;2024-01-10T00:20:44;5.80;;;4.13;;
3359;SDS011;1693;49.602;11.046;2024-01-10T00:23:11;5.53;;;3.53;;
3359;SDS011;1693;49.602;11.046;2024-01-10T00:25:38;4.90;;;3.73;;
3359;SDS011;1693;49.602;11.046;2024-01-10T00:28:05;7.10;;;3.77;;
3359;SDS011;1693;49.602;11.046;2024-01-10T00:30:33;5.43;;;3.80;;
3359;SDS011;1693;49.602;11.046;2024-01-10T00:33:00;7.63;;;3.47;;
3359;SDS011;1693;49.602;11.046;2024-01-10T00:35:28;5.60;;;3.33;;
3359;SDS011;1693;49.602;11.046;2024-01-10T00:37:58;4.43;;;3.50;;
3359;SDS011;1693;49.602;11.046;2024-01-10T00:40:25;3.83;;;2.93;;
3359;SDS011;1693;49.602;11.046;2024-01-10T00:42:52;7.40;;;3.17;;
3359;SDS011;1693;49.602;11.046;2024-01-10T00:45:20;5.17;;;4.10;;
3359;SDS011;1693;49.602;11.046;2024-01-10T00:47:48;8.30;;;4.00;;
3359;SDS011;1693;49.602;11.046;2024-01-10T00:50:15;7.10;;;3.97;;
3359;SDS011;1693;49.602;11.046;2024-01-10T00:52:43;5.53;;;3.07;;
3359;SDS011;1693;49.602;11.046;2024-01-10T00:55:12;6.67;;;3.00;;
3359;SDS011;1693;49.602;11.046;2024-01-10T00:57:39;9.40;;;3.40;;
3359;SDS011;1693;49.602;11.046;2024-01-10T01:00:07;8.73;;;3.90;;
3359;SDS011;1693;49.602;11.046;2024-01-10T01:02:35;9.20;;;4.37;;
3359;SDS011;1693;49.602;11.046;2024-01-10T01:05:05;7.77;;;3.43;;
3359;SDS011;1693;49.602;11.046;2024-01-10T01:07:33;5.53;;;4.10;;
3359;SDS011;1693;49.602;11.046;2024-01-10T01:10:00;6.57;;;3.63;;
3359;SDS011;1693;49.602;11.046;2024-01-10T01:12:29;5.17;;;3.40;;
3359;SDS011;1693;49.602;11.046;2024-01-10T01:14:57;9.07;;;4.47;;
3359;SDS011;1693;49.602;11.046;2024-01-10T01:17:24;8.60;;;4.20;;
3359;SDS011;1693;49.602;11.046;2024-01-10T01:19:51;8.40;;;3.07;;
3359;SDS011;1693;49.602;11.046;2024-01-10T01:22:19;6.07;;;3.70;;
3359;SDS011;1693;49.602;11.046;2024-01-10T01:24:46;4.93;;;3.63;;
3359;SDS011;1693;49.602;11.046;2024-01-10T01:27:14;5.37;;;3.73;;
3359;SDS011;1693;49.602;11.046;2024-01-10T01:29:42;4.90;;;3.23;;
3359;SDS011;1693;49.602;11.046;2024-01-10T01:32:10;4.70;;;2.50;;
3359;SDS011;1693;49.602;11.046;2024-01-10T01:34:37;7.60;;;4.20;;
3359;SDS011;1693;49.602;11.046;2024-01-10T01:37:05;5.50;;;3.50;;
3359;SDS011;1693;49.602;11.046;2024-01-10T01:39:32;4.90;;;4.10;;
3359;SDS011;1693;49.602;11.046;2024-01-10T01:42:00;5.17;;;3.70;;
3359;SDS011;1693;49.602;11.046;2024-01-10T01:44:27;6.10;;;4.07;;
3359;SDS011;1693;49.602;11.046;2024-01-10T01:46:58;6.10;;;3.60;;
3359;SDS011;1693;49.602;11.046;2024-01-10T01:49:25;8.00;;;3.17;;
3359;SDS011;1693;49.602;11.046;2024-01-10T01:51:53;6.80;;;4.97;;
3359;SDS011;1693;49.602;11.046;2024-01-10T01:54:20;5.33;;;3.13;;
3359;SDS011;1693;49.602;11.046;2024-01-10T01:56:48;6.50;;;3.50;;
3359;SDS011;1693;49.602;11.046;2024-01-10T01:59:16;7.77;;;3.73;;
3359;SDS011;1693;49.602;11.046;2024-01-10T02:01:44;5.47;;;3.13;;
3359;SDS011;1693;49.602;11.046;2024-01-10T02:04:13;4.13;;;3.07;;
3359;SDS011;1693;49.602;11.046;2024-01-10T02:06:41;7.30;;;4.43;;
3359;SDS011;1693;49.602;11.046;2024-01-10T02:09:08;6.23;;;2.57;;
3359;SDS011;1693;49.602;11.046;2024-01-10T02:11:36;5.67;;;3.50;;
3359;SDS011;1693;49.602;11.046;2024-01-10T02:14:04;5.30;;;3.70;;
3359;SDS011;1693;49.602;11.046;2024-01-10T02:16:32;8.07;;;4.27;;
3359;SDS011;1693;49.602;11.046;2024-01-10T02:19:00;6.47;;;3.70;;
3359;SDS011;1693;49.602;11.046;2024-01-10T02:21:29;7.80;;;3.60;;
3359;SDS011;1693;49.602;11.046;2024-01-10T02:23:57;7.53;;;3.30;;
3359;SDS011;1693;49.602;11.046;2024-01-10T02:26:26;4.37;;;3.00;;
3359;SDS011;1693;49.602;11.046;2024-01-10T02:28:53;4.70;;;3.17;;
3359;SDS011;1693;49.602;11.046;2024-01-10T02:31:20;9.37;;;3.57;;
3359;SDS011;1693;49.602;11.046;2024-01-10T02:33:48;6.30;;;4.03;;
3359;SDS011;1693;49.602;11.046;2024-01-10T02:36:15;4.47;;;3.00;;
3359;SDS011;1693;49.602;11.046;2024-01-10T02:38:44;7.93;;;3.77;;
3359;SDS011;1693;49.602;11.046;2024-01-10T02:41:12;7.93;;;3.50;;
3359;SDS011;1693;49.602;11.046;2024-01-10T02:43:41;5.87;;;3.67;;
3359;SDS011;1693;49.602;11.046;2024-01-10T02:46:09;8.70;;;4.00;;
3359;SDS011;1693;49.602;11.046;2024-01-10T02:48:36;7.20;;;3.70;;
3359;SDS011;1693;49.602;11.046;2024-01-10T02:51:04;6.47;;;3.73;;
3359;SDS011;1693;49.602;11.046;2024-01-10T02:53:31;7.10;;;3.50;;
3359;SDS011;1693;49.602;11.046;2024-01-10T02:55:59;6.50;;;4.17;;
3359;SDS011;1693;49.602;11.046;2024-01-10T02:58:26;6.50;;;3.90;;
3359;SDS011;1693;49.602;11.046;2024-01-10T03:00:56;6.90;;;3.50;;
3359;SDS011;1693;49.602;11.046;2024-01-10T03:03:24;3.80;;;2.90;;
3359;SDS011;1693;49.602;11.046;2024-01-10T03:05:51;9.30;;;3.80;;
3359;SDS011;1693;49.602;11.046;2024-01-10T03:08:18;6.43;;;3.03;;
3359;SDS011;1693;49.602;11.046;2024-01-10T03:10:49;8.53;;;3.87;;
3359;SDS011;1693;49.602;11.046;2024-01-10T03:13:17;7.00;;;3.50;;
3359;SDS011;1693;49.602;11.046;2024-01-10T03:15:44;7.77;;;3.50;;
3359;SDS011;1693;49.602;11.046;2024-01-10T03:18:13;6.37;;;3.43;;
3359;SDS011;1693;49.602;11.046;2024-01-10T03:20:41;4.80;;;2.73;;
3359;SDS011;1693;49.602;11.046;2024-01-10T03:23:08;6.80;;;3.40;;
3359;SDS011;1693;49.602;11.046;2024-01-10T03:25:36;6.33;;;3.23;;
3359;SDS011;1693;49.602;11.046;2024-01-10T03:28:03;6.37;;;3.00;;
3359;SDS011;1693;49.602;11.046;2024-01-10T03:30:31;8.37;;;4.43;;
3359;SDS011;1693;49.602;11.046;2024-01-10T03:32:58;7.67;;;4.20;;
3359;SDS011;1693;49.602;11.046;2024-01-10T03:35:27;4.87;;;3.60;;
3359;SDS011;1693;49.602;11.046;2024-01-10T03:37:55;6.83;;;4.10;;
3359;SDS011;1693;49.602;11.046;2024-01-10T03:40:22;8.23;;;3.80;;
3359;SDS011;1693;49.602;11.046;2024-01-10T03:42:50;7.97;;;3.63;;
3359;SDS011;1693;49.602;11.046;2024-01-10T03:45:17;7.10;;;3.90;;
3359;SDS011;1693;49.602;11.046;2024-01-10T03:47:48;3.57;;;2.53;;
3359;SDS011;1693;49.602;11.046;2024-01-10T03:50:16;5.63;;;4.03;;
3359;SDS011;1693;49.602;11.046;2024-01-10T03:52:45;7.47;;;3.57;;
3359;SDS011;1693;49.602;11.046;2024-01-10T03:55:13;9.10;;;4.60;;
3359;SDS011;1693;49.602;11.046;2024-01-10T03:57:40;6.97;;;4.03;;
3359;SDS011;1693;49.602;11.046;2024-01-10T04:00:09;8.87;;;4.07;;
3359;SDS011;1693;49.602;11.046;2024-01-10T04:02:36;6.20;;;3.80;;
3359;SDS011;1693;49.602;11.046;2024-01-10T04:05:06;5.80;;;3.77;;
3359;SDS011;1693;49.602;11.046;2024-01-10T04:07:34;5.53;;;3.20;;
3359;SDS011;1693;49.602;11.046;2024-01-10T04:10:04;5.80;;;3.33;;
3359;SDS011;1693;49.602;11.046;2024-01-10T04:12:35;4.03;;;2.67;;
3359;SDS011;1693;49.602;11.046;2024-01-10T04:15:03;6.63;;;3.10;;
3359;SDS011;1693;49.602;11.046;2024-01-10T04:17:30;6.57;;;4.27;;
3359;SDS011;1693;49.602;11.046;2024-01-10T04:19:57;6.90;;;3.70;;
3359;SDS011;1693;49.602;11.046;2024-01-10T04:22:25;8.60;;;3.40;;
3359;SDS011;1693;49.602;11.046;2024-01-10T04:24:52;8.17;;;4.67;;
3359;SDS011;1693;49.602;11.046;2024-01-10T04:27:21;9.50;;;3.50;;
3359;SDS011;1693;49.602;11.046;2024-01-10T04:29:49;5.93;;;3.30;;
3359;SDS011;1693;49.602;11.046;2024-01-10T04:32:16;6.57;;;3.30;;
3359;SDS011;1693;49.602;11.046;2024-01-10T04:34:43;5.47;;;3.10;;
3359;SDS011;1693;49.602;11.046;2024-01-10T04:37:11;7.30;;;4.03;;
3359;SDS011;1693;49.602;11.046;2024-01-10T04:39:39;3.43;;;2.90;;
3359;SDS011;1693;49.602;11.046;2024-01-10T04:42:08;6.27;;;3.73;;
3359;SDS011;1693;49.602;11.046;2024-01-10T04:44:37;7.93;;;3.37;;
3359;SDS011;1693;49.602;11.046;2024-01-10T04:47:04;4.97;;;3.73;;
3359;SDS011;1693;49.602;11.046;2024-01-10T04:49:32;9.53;;;3.47;;
3359;SDS011;1693;49.602;11.046;2024-01-10T04:52:00;7.37;;;3.80;;
3359;SDS011;1693;49.602;11.046;2024-01-10T04:54:27;5.53;;;3.27;;
3359;SDS011;1693;49.602;11.046;2024-01-10T04:56:54;5.57;;;3.27;;
3359;SDS011;1693;49.602;11.046;2024-01-10T04:59:22;5.37;;;3.70;;
3359;SDS011;1693;49.602;11.046;2024-01-10T05:01:51;7.50;;;3.60;;
3359;SDS011;1693;49.602;11.046;2024-01-10T05:04:18;8.20;;;4.63;;
3359;SDS011;1693;49.602;11.046;2024-01-10T05:06:46;4.33;;;3.30;;
3359;SDS011;1693;49.602;11.046;2024-01-10T05:09:14;6.70;;;3.83;;
3359;SDS011;1693;49.602;11.046;2024-01-10T05:11:41;8.77;;;3.90;;
3359;SDS011;1693;49.602;11.046;2024-01-10T05:14:13;6.30;;;3.50;;
3359;SDS011;1693;49.602;11.046;2024-01-10T05:16:41;7.53;;;5.00;;
3359;SDS011;1693;49.602;11.046;2024-01-10T05:19:14;6.50;;;4.03;;
3359;SDS011;1693;49.602;11.046;2024-01-10T05:21:41;6.20;;;3.90;;
3359;SDS011;1693;49.602;11.046;2024-01-10T05:24:09;7.77;;;3.77;;
3359;SDS011;1693;49.602;11.046;2024-01-10T05:26:36;8.47;;;3.80;;
3359;SDS011;1693;49.602;11.046;2024-01-10T05:29:03;8.00;;;4.23;;
3359;SDS011;1693;49.602;11.046;2024-01-10T05:31:31;5.70;;;3.87;;
3359;SDS011;1693;49.602;11.046;2024-01-10T05:33:58;8.00;;;4.27;;
3359;SDS011;1693;49.602;11.046;2024-01-10T05:36:27;9.57;;;4.77;;
3359;SDS011;1693;49.602;11.046;2024-01-10T05:38:54;6.53;;;3.90;;
3359;SDS011;1693;49.602;11.046;2024-01-10T05:41:21;9.47;;;4.77;;
3359;SDS011;1693;49.602;11.046;2024-01-10T05:43:50;4.37;;;3.50;;
3359;SDS011;1693;49.602;11.046;2024-01-10T05:46:17;6.70;;;4.03;;
3359;SDS011;1693;49.602;11.046;2024-01-10T05:48:45;4.73;;;3.57;;
3359;SDS011;1693;49.602;11.046;2024-01-10T05:51:13;7.27;;;4.40;;
3359;SDS011;1693;49.602;11.046;2024-01-10T05:53:42;6.50;;;4.27;;
3359;SDS011;1693;49.602;11.046;2024-01-10T05:56:09;7.53;;;4.47;;
3359;SDS011;1693;49.602;11.046;2024-01-10T05:58:37;5.40;;;3.50;;
3359;SDS011;1693;49.602;11.046;2024-01-10T06:01:05;7.70;;;4.87;;
3359;SDS011;1693;49.602;11.046;2024-01-10T06:03:35;8.63;;;4.80;;
3359;SDS011;1693;49.602;11.046;2024-01-10T06:06:03;7.77;;;4.23;;
3359;SDS011;1693;49.602;11.046;2024-01-10T06:08:31;33.77;;;17.63;;
3359;SDS011;1693;49.602;11.046;2024-01-10T06:10:59;13.13;;;7.57;;
3359;SDS011;1693;49.602;11.046;2024-01-10T06:13:31;8.07;;;4.80;;
3359;SDS011;1693;49.602;11.046;2024-01-10T06:15:58;7.50;;;4.67;;
3359;SDS011;1693;49.602;11.046;2024-01-10T06:18:28;8.10;;;4.83;;
3359;SDS011;1693;49.602;11.046;2024-01-10T06:20:59;9.83;;;5.77;;
3359;SDS011;1693;49.602;11.046;2024-01-10T06:23:42;10.83;;;5.37;;
3359;SDS011;1693;49.602;11.046;2024-01-10T06:26:23;7.17;;;4.50;;
3359;SDS011;1693;49.602;11.046;2024-01-10T06:28:50;9.67;;;5.23;;
3359;SDS011;1693;49.602;11.046;2024-01-10T06:31:17;8.83;;;4.30;;
3359;SDS011;1693;49.602;11.046;2024-01-10T06:33:45;7.97;;;5.00;;
3359;SDS011;1693;49.602;11.046;2024-01-10T06:36:13;8.63;;;4.70;;
3359;SDS011;1693;49.602;11.046;2024-01-10T06:38:40;10.77;;;4.27;;
3359;SDS011;1693;49.602;11.046;2024-01-10T06:41:09;8.67;;;5.23;;
3359;SDS011;1693;49.602;11.046;2024-01-10T06:43:41;8.93;;;4.93;;
3359;SDS011;1693;49.602;11.046;2024-01-10T06:46:10;8.43;;;4.33;;
3359;SDS011;1693;49.602;11.046;2024-01-10T06:48:37;9.03;;;5.40;;
3359;SDS011;1693;49.602;11.046;2024-01-10T06:51:09;10.80;;;5.90;;
3359;SDS011;1693;49.602;11.046;2024-01-10T06:53:37;9.07;;;6.23;;
3359;SDS011;1693;49.602;11.046;2024-01-10T06:56:05;10.97;;;5.33;;
3359;SDS011;1693;49.602;11.046;2024-01-10T06:58:34;12.33;;;6.80;;
3359;SDS011;1693;49.602;11.046;2024-01-10T07:01:03;15.47;;;5.87;;
3359;SDS011;1693;49.602;11.046;2024-01-10T07:03:31;9.60;;;5.43;;
3359;SDS011;1693;49.602;11.046;2024-01-10T07:05:59;5.40;;;4.10;;
3359;SDS011;1693;49.602;11.046;2024-01-10T07:08:28;16.23;;;4.87;;
3359;SDS011;1693;49.602;11.046;2024-01-10T07:10:56;9.03;;;4.90;;
3359;SDS011;1693;49.602;11.046;2024-01-10T07:13:25;7.30;;;4.50;;
3359;SDS011;1693;49.602;11.046;2024-01-10T07:15:52;10.10;;;5.60;;
3359;SDS011;1693;49.602;11.046;2024-01-10T07:18:22;12.10;;;5.20;;
3359;SDS011;1693;49.602;11.046;2024-01-10T07:20:49;6.90;;;4.90;;
3359;SDS011;1693;49.602;11.046;2024-01-10T07:23:18;8.63;;;4.07;;
3359;SDS011;1693;49.602;11.046;2024-01-10T07:25:45;12.43;;;5.00;;
3359;SDS011;1693;49.602;11.046;2024-01-10T07:28:13;6.13;;;3.93;;
3359;SDS011;1693;49.602;11.046;2024-01-10T07:30:40;6.77;;;3.57;;
3359;SDS011;1693;49.602;11.046;2024-01-10T07:33:09;7.03;;;4.57;;
3359;SDS011;1693;49.602;11.046;2024-01-10T07:35:38;7.70;;;5.03;;
3359;SDS011;1693;49.602;11.046;2024-01-10T07:38:05;7.97;;;4.40;;
3359;SDS011;1693;49.602;11.046;2024-01-10T07:40:36;13.23;;;6.00;;
3359;SDS011;1693;49.602;11.046;2024-01-10T07:43:04;5.87;;;3.70;;
3359;SDS011;1693;49.602;11.046;2024-01-10T07:45:31;9.17;;;4.77;;
3359;SDS011;1693;49.602;11.046;2024-01-10T07:47:58;8.07;;;5.13;;
3359;SDS011;1693;49.602;11.046;2024-01-10T07:50:26;8.67;;;5.33;;
3359;SDS011;1693;49.602;11.046;2024-01-10T07:52:55;6.30;;;4.73;;
3359;SDS011;1693;49.602;11.046;2024-01-10T07:55:22;8.37;;;6.17;;
3359;SDS011;1693;49.602;11.046;2024-01-10T07:57:50;7.27;;;4.57;;
3359;SDS011;1693;49.602;11.046;2024-01-10T08:00:17;9.10;;;5.10;;
3359;SDS011;1693;49.602;11.046;2024-01-10T08:02:45;12.23;;;5.47;;
3359;SDS011;1693;49.602;11.046;2024-01-10T08:05:14;5.73;;;4.70;;
3359;SDS011;1693;49.602;11.046;2024-01-10T08:07:42;10.47;;;4.53;;
3359;SDS011;1693;49.602;11.046;2024-01-10T08:10:11;9.40;;;4.40;;
3359;SDS011;1693;49.602;11.046;2024-01-10T08:12:40;11.30;;;5.37;;
3359;SDS011;1693;49.602;11.046;2024-01-10T08:15:08;7.50;;;5.27;;
3359;SDS011;1693;49.602;11.046;2024-01-10T08:17:36;11.60;;;5.30;;
3359;SDS011;1693;49.602;11.046;2024-01-10T08:20:04;8.57;;;5.40;;
3359;SDS011;1693;49.602;11.046;2024-01-10T08:22:32;13.27;;;6.97;;
3359;SDS011;1693;49.602;11.046;2024-01-10T08:24:59;10.67;;;6.67;;
3359;SDS011;1693;49.602;11.046;2024-01-10T08:27:29;7.90;;;4.90;;
3359;SDS011;1693;49.602;11.046;2024-01-10T08:29:56;11.00;;;7.30;;
3359;SDS011;1693;49.602;11.046;2024-01-10T08:32:26;12.40;;;6.87;;
3359;SDS011;1693;49.602;11.046;2024-01-10T08:35:02;16.93;;;6.97;;
3359;SDS011;1693;49.602;11.046;2024-01-10T08:37:30;14.07;;;6.60;;
3359;SDS011;1693;49.602;11.046;2024-01-10T08:39:58;16.03;;;6.30;;
3359;SDS011;1693;49.602;11.046;2024-01-10T08:42:33;11.83;;;6.37;;
3359;SDS011;1693;49.602;11.046;2024-01-10T08:45:00;13.67;;;6.43;;
3359;SDS011;1693;49.602;11.046;2024-01-10T08:47:27;11.27;;;5.47;;
3359;SDS011;1693;49.602;11.046;2024-01-10T08:49:56;12.03;;;6.93;;
3359;SDS011;1693;49.602;11.046;2024-01-10T08:52:24;10.77;;;5.93;;
3359;SDS011;1693;49.602;11.046;2024-01-10T08:54:51;6.63;;;4.07;;
3359;SDS011;1693;49.602;11.046;2024-01-10T08:57:18;8.07;;;6.37;;
3359;SDS011;1693;49.602;11.046;2024-01-10T08:59:47;7.93;;;5.17;;
3359;SDS011;1693;49.602;11.046;2024-01-10T09:02:14;8.60;;;5.17;;
3359;SDS011;1693;49.602;11.046;2024-01-10T09:04:41;11.77;;;7.50;;
3359;SDS011;1693;49.602;11.046;2024-01-10T09:07:08;9.50;;;4.93;;
3359;SDS011;1693;49.602;11.046;2024-01-10T09:09:35;9.10;;;5.87;;
3359;SDS011;1693;49.602;11.046;2024-01-10T09:12:03;15.80;;;6.20;;
3359;SDS011;1693;49.602;11.046;2024-01-10T09:14:30;6.57;;;4.30;;
3359;SDS011;1693;49.602;11.046;2024-01-10T09:16:59;16.20;;;5.97;;
3359;SDS011;1693;49.602;11.046;2024-01-10T09:19:28;9.30;;;4.40;;
3359;SDS011;1693;49.602;11.046;2024-01-10T09:21:55;10.97;;;5.60;;
3359;SDS011;1693;49.602;11.046;2024-01-10T09:24:23;9.07;;;5.90;;
3359;SDS011;1693;49.602;11.046;2024-01-10T09:26:51;10.07;;;5.50;;
3359;SDS011;1693;49.602;11.046;2024-01-10T09:29:18;9.73;;;6.53;;
3359;SDS011;1693;49.602;11.046;2024-01-10T09:31:45;9.03;;;5.60;;
3359;SDS011;1693;49.602;11.046;2024-01-10T09:34:14;13.40;;;6.70;;
3359;SDS011;1693;49.602;11.046;2024-01-10T09:36:41;11.97;;;6.27;;
3359;SDS011;1693;49.602;11.046;2024-01-10T09:39:08;10.23;;;5.00;;
3359;SDS011;1693;49.602;11.046;2024-01-10T09:41:40;10.40;;;7.60;;
3359;SDS011;1693;49.602;11.046;2024-01-10T09:44:14;16.50;;;7.40;;
3359;SDS011;1693;49.602;11.046;2024-01-10T09:46:43;7.67;;;5.77;;
3359;SDS011;1693;49.602;11.046;2024-01-10T09:49:17;9.60;;;5.87;;
3359;SDS011;1693;49.602;11.046;2024-01-10T09:51:47;12.53;;;7.10;;
3359;SDS011;1693;49.602;11.046;2024-01-10T09:54:15;10.67;;;5.80;;
3359;SDS011;1693;49.602;11.046;2024-01-10T09:56:44;14.53;;;6.00;;
3359;SDS011;1693;49.602;11.046;2024-01-10T09:59:12;7.63;;;5.83;;
3359;SDS011;1693;49.602;11.046;2024-01-10T10:01:39;8.10;;;4.80;;
3359;SDS011;1693;49.602;11.046;2024-01-10T10:04:07;10.00;;;5.50;;
3359;SDS011;1693;49.602;11.046;2024-01-10T10:06:38;10.83;;;6.10;;
3359;SDS011;1693;49.602;11.046;2024-01-10T10:09:06;10.60;;;6.47;;
3359;SDS011;1693;49.602;11.046;2024-01-10T10:11:35;14.93;;;7.93;;
3359;SDS011;1693;49.602;11.046;2024-01-10T10:16:46;8.43;;;6.43;;
3359;SDS011;1693;49.602;11.046;2024-01-10T10:19:20;9.83;;;5.83;;
3359;SDS011;1693;49.602;11.046;2024-01-10T10:21:52;10.73;;;6.10;;
3359;SDS011;1693;49.602;11.046;2024-01-10T10:24:21;11.83;;;6.40;;
3359;SDS011;1693;49.602;11.046;2024-01-10T10:26:51;12.70;;;5.67;;
3359;SDS011;1693;49.602;11.046;2024-01-10T10:29:22;7.77;;;5.93;;
3359;SDS011;1693;49.602;11.046;2024-01-10T10:31:54;6.23;;;5.60;;
3359;SDS011;1693;49.602;11.046;2024-01-10T10:34:22;11.67;;;6.13;;
3359;SDS011;1693;49.602;11.046;2024-01-10T10:36:52;8.90;;;6.07;;
3359;SDS011;1693;49.602;11.046;2024-01-10T10:39:20;9.13;;;5.80;;
3359;SDS011;1693;49.602;11.046;2024-01-10T10:41:47;8.07;;;5.60;;
3359;SDS011;1693;49.602;11.046;2024-01-10T10:44:17;9.37;;;6.33;;
3359;SDS011;1693;49.602;11.046;2024-01-10T10:46:49;10.73;;;5.93;;
3359;SDS011;1693;49.602;11.046;2024-01-10T10:49:20;12.87;;;6.73;;
3359;SDS011;1693;49.602;11.046;2024-01-10T10:51:55;11.90;;;6.37;;
3359;SDS011;1693;49.602;11.046;2024-01-10T10:54:26;10.30;;;6.03;;
3359;SDS011;1693;49.602;11.046;2024-01-10T10:56:57;7.93;;;5.90;;
3359;SDS011;1693;49.602;11.046;2024-01-10T10:59:26;9.30;;;5.37;;
3359;SDS011;1693;49.602;11.046;2024-01-10T11:01:53;8.57;;;5.17;;
3359;SDS011;1693;49.602;11.046;2024-01-10T11:04:22;10.57;;;6.10;;
3359;SDS011;1693;49.602;11.046;2024-01-10T11:06:49;10.47;;;6.50;;
3359;SDS011;1693;49.602;11.046;2024-01-10T11:09:18;10.80;;;6.27;;
3359;SDS011;1693;49.602;11.046;2024-01-10T11:11:52;10.50;;;5.63;;
3359;SDS011;1693;49.602;11.046;2024-01-10T11:14:30;8.40;;;6.33;;
3359;SDS011;1693;49.602;11.046;2024-01-10T11:17:15;11.33;;;6.80;;
3359;SDS011;1693;49.602;11.046;2024-01-10T11:26:06;8.47;;;5.67;;
3359;SDS011;1693;49.602;11.046;2024-01-10T11:28:35;17.07;;;7.20;;
3359;SDS011;1693;49.602;11.046;2024-01-10T11:31:03;11.67;;;6.90;;
3359;SDS011;1693;49.602;11.046;2024-01-10T11:33:33;8.27;;;5.43;;
3359;SDS011;1693;49.602;11.046;2024-01-10T11:36:08;9.03;;;5.90;;
3359;SDS011;1693;49.602;11.046;2024-01-10T11:38:43;12.87;;;6.37;;
3359;SDS011;1693;49.602;11.046;2024-01-10T11:41:12;12.20;;;6.73;;
3359;SDS011;1693;49.602;11.046;2024-01-10T11:43:42;8.07;;;5.57;;
3359;SDS011;1693;49.602;11.046;2024-01-10T11:46:09;7.40;;;5.10;;
3359;SDS011;1693;49.602;11.046;2024-01-10T11:48:37;14.10;;;5.77;;
3359;SDS011;1693;49.602;11.046;2024-01-10T11:51:06;9.23;;;5.80;;
3359;SDS011;1693;49.602;11.046;2024-01-10T11:53:37;8.27;;;5.20;;
3359;SDS011;1693;49.602;11.046;2024-01-10T11:56:08;6.93;;;4.80;;
3359;SDS011;1693;49.602;11.046;2024-01-10T12:01:35;10.07;;;6.07;;
3359;SDS011;1693;49.602;11.046;2024-01-10T12:04:03;8.93;;;5.90;;
3359;SDS011;1693;49.602;11.046;2024-01-10T12:06:30;14.33;;;6.30;;
3359;SDS011;1693;49.602;11.046;2024-01-10T12:08:58;8.43;;;5.60;;
3359;SDS011;1693;49.602;11.046;2024-01-10T12:11:29;10.57;;;6.00;;
3359;SDS011;1693;49.602;11.046;2024-01-10T12:13:57;9.30;;;6.50;;
3359;SDS011;1693;49.602;11.046;2024-01-10T12:16:24;9.00;;;5.70;;
3359;SDS011;1693;49.602;11.046;2024-01-10T12:18:53;7.90;;;4.70;;
3359;SDS011;1693;49.602;11.046;2024-01-10T12:21:20;7.87;;;5.33;;
3359;SDS011;1693;49.602;11.046;2024-01-10T12:23:48;8.87;;;6.13;;
3359;SDS011;1693;49.602;11.046;2024-01-10T12:26:16;8.00;;;5.03;;
3359;SDS011;1693;49.602;11.046;2024-01-10T12:28:53;10.20;;;5.93;;
3359;SDS011;1693;49.602;11.046;2024-01-10T12:31:21;8.70;;;5.90;;
3359;SDS011;1693;49.602;11.046;2024-01-10T12:33:48;6.37;;;5.10;;
3359;SDS011;1693;49.602;11.046;2024-01-10T12:36:17;13.30;;;6.70;;
3359;SDS011;1693;49.602;11.046;2024-01-10T12:38:45;12.70;;;5.30;;
3359;SDS011;1693;49.602;11.046;2024-01-10T12:41:14;7.37;;;4.10;;
3359;SDS011;1693;49.602;11.046;2024-01-10T12:43:42;11.33;;;6.20;;
3359;SDS011;1693;49.602;11.046;2024-01-10T12:46:12;9.47;;;5.33;;
3359;SDS011;1693;49.602;11.046;2024-01-10T12:48:39;9.73;;;5.00;;
3359;SDS011;1693;49.602;11.046;2024-01-10T12:51:08;9.60;;;5.77;;
3359;SDS011;1693;49.602;11.046;2024-01-10T12:53:37;8.50;;;5.17;;
3359;SDS011;1693;49.602;11.046;2024-01-10T12:56:06;7.83;;;4.67;;
3359;SDS011;1693;49.602;11.046;2024-01-10T12:58:34;7.33;;;4.40;;
3359;SDS011;1693;49.602;11.046;2024-01-10T13:01:02;10.87;;;5.10;;
3359;SDS011;1693;49.602;11.046;2024-01-10T13:03:29;10.50;;;5.87;;
3359;SDS011;1693;49.602;11.046;2024-01-10T13:05:57;8.10;;;4.83;;
3359;SDS011;1693;49.602;11.046;2024-01-10T13:08:25;8.87;;;4.50;;
3359;SDS011;1693;49.602;11.046;2024-01-10T13:10:53;7.87;;;5.50;;
3359;SDS011;1693;49.602;11.046;2024-01-10T13:13:20;7.83;;;4.60;;
3359;SDS011;1693;49.602;11.046;2024-01-10T13:15:49;9.93;;;5.73;;
3359;SDS011;1693;49.602;11.046;2024-01-10T13:18:17;9.23;;;5.07;;
3359;SDS011;1693;49.602;11.046;2024-01-10T13:20:45;6.20;;;4.87;;
3359;SDS011;1693;49.602;11.046;2024-01-10T13:23:12;6.77;;;5.50;;
3359;SDS011;1693;49.602;11.046;2024-01-10T13:25:40;8.50;;;6.53;;
3359;SDS011;1693;49.602;11.046;2024-01-10T13:28:09;8.30;;;5.13;;
3359;SDS011;1693;49.602;11.046;2024-01-10T13:30:37;8.00;;;5.10;;
3359;SDS011;1693;49.602;11.046;2024-01-10T13:33:06;10.50;;;6.07;;
3359;SDS011;1693;49.602;11.046;2024-01-10T13:35:34;7.77;;;5.33;;
3359;SDS011;1693;49.602;11.046;2024-01-10T13:38:01;9.90;;;4.83;;
3359;SDS011;1693;49.602;11.046;2024-01-10T13:40:29;5.73;;;4.20;;
3359;SDS011;1693;49.602;11.046;2024-01-10T13:42:57;8.87;;;5.47;;
3359;SDS011;1693;49.602;11.046;2024-01-10T13:45:29;10.07;;;5.60;;
3359;SDS011;1693;49.602;11.046;2024-01-10T13:47:56;8.10;;;5.23;;
3359;SDS011;1693;49.602;11.046;2024-01-10T13:50:25;9.20;;;6.47;;
3359;SDS011;1693;49.602;11.046;2024-01-10T13:52:53;8.30;;;6.07;;
3359;SDS011;1693;49.602;11.046;2024-01-10T13:55:21;7.70;;;5.80;;
3359;SDS011;1693;49.602;11.046;2024-01-10T13:57:49;7.60;;;6.43;;
3359;SDS011;1693;49.602;11.046;2024-01-10T14:00:18;12.43;;;6.00;;
3359;SDS011;1693;49.602;11.046;2024-01-10T14:02:48;11.60;;;5.37;;
3359;SDS011;1693;49.602;11.046;2024-01-10T14:05:16;9.57;;;4.30;;
3359;SDS011;1693;49.602;11.046;2024-01-10T14:07:47;9.20;;;5.17;;
3359;SDS011;1693;49.602;11.046;2024-01-10T14:10:16;8.87;;;5.80;;
3359;SDS011;1693;49.602;11.046;2024-01-10T14:12:44;9.83;;;5.67;;
3359;SDS011;1693;49.602;11.046;2024-01-10T14:15:12;14.70;;;5.87;;
3359;SDS011;1693;49.602;11.046;2024-01-10T14:17:40;12.60;;;5.23;;
3359;SDS011;1693;49.602;11.046;2024-01-10T14:20:17;5.57;;;4.97;;
3359;SDS011;1693;49.602;11.046;2024-01-10T14:23:00;8.33;;;5.03;;
3359;SDS011;1693;49.602;11.046;2024-01-10T14:25:45;8.80;;;7.23;;
3359;SDS011;1693;49.602;11.046;2024-01-10T14:28:12;9.90;;;6.13;;
3359;SDS011;1693;49.602;11.046;2024-01-10T14:30:39;6.13;;;5.20;;
3359;SDS011;1693;49.602;11.046;2024-01-10T14:33:06;8.20;;;5.80;;
3359;SDS011;1693;49.602;11.046;2024-01-10T14:38:44;9.40;;;5.90;;
3359;SDS011;1693;49.602;11.046;2024-01-10T14:41:29;13.50;;;6.43;;
3359;SDS011;1693;49.602;11.046;2024-01-10T14:43:56;9.47;;;6.53;;
3359;SDS011;1693;49.602;11.046;2024-01-10T14:46:24;8.03;;;4.90;;
3359;SDS011;1693;49.602;11.046;2024-01-10T14:48:53;9.57;;;5.90;;
3359;SDS011;1693;49.602;11.046;2024-01-10T14:51:20;8.97;;;5.70;;
3359;SDS011;1693;49.602;11.046;2024-01-10T14:53:48;10.00;;;5.17;;
3359;SDS011;1693;49.602;11.046;2024-01-10T14:56:16;8.27;;;5.23;;
3359;SDS011;1693;49.602;11.046;2024-01-10T14:58:44;7.47;;;5.43;;
3359;SDS011;1693;49.602;11.046;2024-01-10T15:01:11;11.93;;;5.30;;
3359;SDS011;1693;49.602;11.046;2024-01-10T15:03:38;12.70;;;6.57;;
3359;SDS011;1693;49.602;11.046;2024-01-10T15:06:07;13.17;;;6.60;;
3359;SDS011;1693;49.602;11.046;2024-01-10T15:08:34;10.93;;;6.83;;
3359;SDS011;1693;49.602;11.046;2024-01-10T15:11:03;10.63;;;7.63;;
3359;SDS011;1693;49.602;11.046;2024-01-10T15:13:31;21.97;;;11.30;;
3359;SDS011;1693;49.602;11.046;2024-01-10T15:15:58;20.30;;;11.83;;
3359;SDS011;1693;49.602;11.046;2024-01-10T15:18:26;12.67;;;9.27;;
3359;SDS011;1693;49.602;11.046;2024-01-10T15:20:53;14.13;;;9.60;;